Time;durP1;ratioP1;P1;durP2;ratioP2;P2;SDS_P1;SDS_P2;PMS_P1;PMS_P2;Temp;Humidity;BMP_temperature;BMP_pressure;BME280_temperature;BME280_humidity;BME280_pressure;Samples;Min_cycle;Max_cycle;Signal;HPM_P1;HPM_P2
2023/12/06 00:01:22;;;;;;;;;;;;;;;1.65;100.00;95819.06;5107812;28;19960;-75
2023/12/06 00:03:48;;;;;;;;;;;;;;;1.64;100.00;95828.59;5107170;28;19941;-75
2023/12/06 00:06:13;;;;;;;;;;;;;;;1.65;100.00;95826.81;5107683;28;19972;-74
2023/12/06 00:08:39;;;;;;;;;;;;;;;1.65;100.00;95829.41;5107670;28;19944;-74
2023/12/06 00:11:05;;;;;;;;;;;;;;;1.63;100.00;95829.56;5107569;28;19938;-74
2023/12/06 00:13:31;;;;;;;;;;;;;;;1.63;100.00;95825.19;5105815;28;19970;-75
2023/12/06 00:15:57;;;;;;;;;;;;;;;1.65;100.00;95829.41;5106572;28;19949;-74
2023/12/06 00:18:23;;;;;;;;;;;;;;;1.65;100.00;95832.78;5106930;28;19936;-75
2023/12/06 00:20:48;;;;;;;;;;;;;;;1.66;100.00;95828.41;5107714;28;19938;-73
2023/12/06 00:23:14;;;;;;;;;;;;;;;1.69;100.00;95830.66;5089613;28;19936;-72
2023/12/06 00:25:40;;;;;;;;;;;;;;;1.69;100.00;95828.88;5106785;28;19940;-72
2023/12/06 00:28:06;;;;;;;;;;;;;;;1.72;100.00;95833.69;5107293;28;19940;-72
2023/12/06 00:30:32;;;;;;;;;;;;;;;1.73;100.00;95830.13;5107449;28;20226;-72
2023/12/06 00:32:58;;;;;;;;;;;;;;;1.75;100.00;95827.38;5106547;28;19954;-72
2023/12/06 00:35:24;;;;;;;;;;;;;;;1.74;100.00;95836.91;5107137;28;19944;-74
2023/12/06 00:37:49;;;;;;;;;;;;;;;1.73;100.00;95835.28;5107111;28;19937;-72
2023/12/06 00:40:15;;;;;;;;;;;;;;;1.71;100.00;95831.28;5107438;28;19961;-73
2023/12/06 00:42:41;;;;;;;;;;;;;;;1.70;100.00;95845.16;5105418;28;19938;-73
2023/12/06 00:45:07;;;;;;;;;;;;;;;1.70;100.00;95833.06;5106069;28;19956;-73
2023/12/06 00:47:33;;;;;;;;;;;;;;;1.70;100.00;95842.59;5106395;28;19980;-74
2023/12/06 00:49:59;;;;;;;;;;;;;;;1.69;100.00;95848.75;5106493;28;19964;-74
2023/12/06 00:52:25;;;;;;;;;;;;;;;1.70;100.00;95840.81;5106272;28;20260;-74
2023/12/06 00:54:50;;;;;;;;;;;;;;;1.74;100.00;95849.00;5106746;28;20020;-74
2023/12/06 00:57:16;;;;;;;;;;;;;;;1.77;100.00;95857.22;5107059;28;19952;-72
2023/12/06 00:59:42;;;;;;;;;;;;;;;1.80;100.00;95848.31;5106199;28;19965;-74
2023/12/06 01:02:08;;;;;;;;;;;;;;;1.82;100.00;95852.31;5106209;28;19959;-73
2023/12/06 01:04:37;;;;;;;;;;;;;;;1.83;100.00;95847.97;5106373;28;20006;-74
2023/12/06 01:07:03;;;;;;;;;;;;;;;1.83;100.00;95851.34;5106608;28;19940;-73
2023/12/06 01:09:28;;;;;;;;;;;;;;;1.83;100.00;95859.09;5105995;28;20021;-74
2023/12/06 01:11:54;;;;;;;;;;;;;;;1.78;100.00;95853.63;5105977;28;19941;-74
2023/12/06 01:14:21;;;;;;;;;;;;;;;1.79;100.00;95859.63;5106557;28;19963;-71
2023/12/06 01:16:47;;;;;;;;;;;;;;;1.79;100.00;95868.19;5105530;28;19943;-71
2023/12/06 01:19:15;;;;;;;;;;;;;;;1.78;100.00;95868.34;5106027;28;19945;-71
2023/12/06 01:21:41;;;;;;;;;;;;;;;1.78;100.00;95863.97;5105981;28;20223;-71
2023/12/06 01:24:06;;;;;;;;;;;;;;;1.78;100.00;95868.34;5105304;28;20017;-71
2023/12/06 01:26:32;;;;;;;;;;;;;;;1.80;100.00;95866.41;5105619;28;19948;-71
2023/12/06 01:28:59;;;;;;;;;;;;;;;1.81;100.00;95875.78;5105650;28;19982;-71
2023/12/06 01:31:25;;;;;;;;;;;;;;;1.81;100.00;95878.34;5105753;28;19961;-72
2023/12/06 01:33:50;;;;;;;;;;;;;;;1.80;100.00;95877.53;5105994;28;20239;-73
2023/12/06 01:36:16;;;;;;;;;;;;;;;1.80;100.00;95877.53;5105443;28;19944;-72
2023/12/06 01:38:42;;;;;;;;;;;;;;;1.78;100.00;95882.06;5105421;28;19942;-72
2023/12/06 01:41:11;;;;;;;;;;;;;;;1.78;100.00;95886.44;5105642;28;19943;-72
2023/12/06 01:43:41;;;;;;;;;;;;;;;1.80;100.00;95879.31;5105763;28;19942;-72
2023/12/06 01:46:06;;;;;;;;;;;;;;;1.83;100.00;95884.97;5104069;28;19983;-69
2023/12/06 01:48:33;;;;;;;;;;;;;;;1.86;100.00;95885.59;5106026;28;20216;-69
2023/12/06 01:50:59;;;;;;;;;;;;;;;1.88;100.00;95887.00;5105238;28;19967;-71
2023/12/06 01:53:25;;;;;;;;;;;;;;;1.91;100.00;95885.84;5103962;28;19983;-71
2023/12/06 01:55:50;;;;;;;;;;;;;;;1.91;100.00;95891.00;5104435;28;20229;-71
2023/12/06 01:58:16;;;;;;;;;;;;;;;1.87;100.00;95888.00;5105629;28;20149;-71
2023/12/06 02:00:43;;;;;;;;;;;;;;;1.85;100.00;95886.53;5105440;28;19976;-71
2023/12/06 02:03:09;;;;;;;;;;;;;;;1.85;100.00;95887.38;5105750;28;20019;-71
2023/12/06 02:05:35;;;;;;;;;;;;;;;1.86;100.00;95901.09;5104831;28;20233;-72
2023/12/06 02:08:03;;;;;;;;;;;;;;;1.87;100.00;95895.75;5105663;28;20029;-69
2023/12/06 02:10:29;;;;;;;;;;;;;;;1.89;100.00;95901.56;5104785;28;19940;-68
2023/12/06 02:12:55;;;;;;;;;;;;;;;1.91;100.00;95885.84;5105213;28;19945;-69
2023/12/06 02:15:21;;;;;;;;;;;;;;;1.93;100.00;95896.81;5104736;28;19943;-70
2023/12/06 02:17:48;;;;;;;;;;;;;;;1.91;100.00;95894.41;5104649;28;19940;-71
2023/12/06 02:20:14;;;;;;;;;;;;;;;1.90;100.00;95892.81;5105256;28;19942;-70
2023/12/06 02:22:41;;;;;;;;;;;;;;;1.89;100.00;95892.97;5104465;28;19945;-70
2023/12/06 02:25:11;;;;;;;;;;;;;;;1.86;100.00;95901.09;5105034;28;19947;-70
2023/12/06 02:27:39;;;;;;;;;;;;;;;1.82;100.00;95901.44;5104532;28;20160;-70
2023/12/06 02:30:05;;;;;;;;;;;;;;;1.79;100.00;95906.16;5105387;28;19936;-70
2023/12/06 02:32:31;;;;;;;;;;;;;;;1.75;100.00;95900.53;5104431;28;19942;-71
2023/12/06 02:34:58;;;;;;;;;;;;;;;1.76;100.00;95898.75;5104866;28;19963;-70
2023/12/06 02:37:24;;;;;;;;;;;;;;;1.75;100.00;95903.13;5105172;28;20117;-70
2023/12/06 02:39:51;;;;;;;;;;;;;;;1.74;100.00;95904.13;5104386;28;19933;-70
2023/12/06 02:42:17;;;;;;;;;;;;;;;1.75;100.00;95908.28;5104832;28;19948;-70
2023/12/06 02:44:43;;;;;;;;;;;;;;;1.75;100.00;95903.13;5104532;28;20180;-71
2023/12/06 02:47:10;;;;;;;;;;;;;;;1.75;100.00;95903.13;5104115;28;19964;-71
2023/12/06 02:49:35;;;;;;;;;;;;;;;1.76;100.00;95902.13;5104420;28;19966;-69
2023/12/06 02:52:01;;;;;;;;;;;;;;;1.77;100.00;95905.53;5105036;28;20118;-71
2023/12/06 02:54:27;;;;;;;;;;;;;;;1.77;100.00;95905.53;5104088;28;20259;-71
2023/12/06 02:56:53;;;;;;;;;;;;;;;1.79;100.00;95904.38;5104724;28;19937;-71
2023/12/06 02:59:19;;;;;;;;;;;;;;;1.81;100.00;95899.03;5104184;28;19936;-71
2023/12/06 03:01:46;;;;;;;;;;;;;;;1.81;100.00;95902.44;5104103;28;19945;-71
2023/12/06 03:04:12;;;;;;;;;;;;;;;1.85;100.00;95909.81;5104894;28;19945;-71
2023/12/06 03:06:38;;;;;;;;;;;;;;;1.86;100.00;95906.25;5104054;28;19941;-74
2023/12/06 03:09:05;;;;;;;;;;;;;;;1.87;100.00;95905.28;5091028;28;19990;-74
2023/12/06 03:11:30;;;;;;;;;;;;;;;1.89;100.00;95904.13;5108270;28;19937;-74
2023/12/06 03:13:56;;;;;;;;;;;;;;;1.90;100.00;95902.34;5108143;28;19961;-74
2023/12/06 03:16:22;;;;;;;;;;;;;;;1.91;100.00;95903.94;5107768;28;19944;-75
2023/12/06 03:18:50;;;;;;;;;;;;;;;1.92;100.00;95900.38;5108429;28;19938;-74
2023/12/06 03:21:16;;;;;;;;;;;;;;;1.92;100.00;95908.16;5108796;28;19936;-74
2023/12/06 03:23:42;;;;;;;;;;;;;;;1.92;100.00;95897.81;5108532;28;19944;-74
2023/12/06 03:26:08;;;;;;;;;;;;;;;1.92;100.00;95903.78;5108478;28;19944;-72
2023/12/06 03:28:33;;;;;;;;;;;;;;;1.93;100.00;95896.81;5107861;28;19939;-72
2023/12/06 03:31:00;;;;;;;;;;;;;;;1.94;100.00;95903.59;5107851;28;19941;-72
2023/12/06 03:33:26;;;;;;;;;;;;;;;1.94;100.00;95906.19;5107705;28;19937;-72
2023/12/06 03:35:51;;;;;;;;;;;;;;;1.90;100.00;95908.31;5107758;28;20009;-72
2023/12/06 03:38:17;;;;;;;;;;;;;;;1.92;100.00;95905.56;5107671;28;19961;-71
2023/12/06 03:40:43;;;;;;;;;;;;;;;1.91;100.00;95911.69;5108366;28;20129;-71
2023/12/06 03:43:09;;;;;;;;;;;;;;;1.91;100.00;95909.09;5107259;28;19941;-74
2023/12/06 03:45:35;;;;;;;;;;;;;;;1.90;100.00;95897.19;5107804;28;20018;-74
2023/12/06 03:48:01;;;;;;;;;;;;;;;1.88;100.00;95907.69;5107509;28;19952;-74
2023/12/06 03:50:26;;;;;;;;;;;;;;;1.88;100.00;95910.28;5107568;28;19970;-74
2023/12/06 03:52:52;;;;;;;;;;;;;;;1.88;100.00;95912.84;5107456;28;20139;-74
2023/12/06 03:55:18;;;;;;;;;;;;;;;1.87;100.00;95907.84;5106865;28;19961;-74
2023/12/06 03:57:44;;;;;;;;;;;;;;;1.87;100.00;95910.44;5106700;28;19991;-74
2023/12/06 04:00:10;;;;;;;;;;;;;;;1.87;100.00;95915.63;5107264;28;20001;-75
2023/12/06 04:02:36;;;;;;;;;;;;;;;1.86;100.00;95912.22;5107149;28;19936;-74
2023/12/06 04:05:02;;;;;;;;;;;;;;;1.86;100.00;95911.44;5090002;28;20000;-74
2023/12/06 04:07:28;;;;;;;;;;;;;;;1.88;100.00;95912.84;5107156;28;19943;-75
2023/12/06 04:09:54;;;;;;;;;;;;;;;1.88;100.00;95910.28;5107881;28;19977;-74
2023/12/06 04:12:20;;;;;;;;;;;;;;;1.88;100.00;95915.44;5106976;28;19946;-74
2023/12/06 04:14:45;;;;;;;;;;;;;;;1.90;100.00;95910.09;5106928;28;19976;-75
2023/12/06 04:17:11;;;;;;;;;;;;;;;1.90;100.00;95915.28;5106962;28;19941;-73
2023/12/06 04:19:38;;;;;;;;;;;;;;;1.90;100.00;95910.91;5106963;28;20225;-73
2023/12/06 04:22:04;;;;;;;;;;;;;;;1.91;100.00;95915.09;5105829;28;20218;-71
2023/12/06 04:24:30;;;;;;;;;;;;;;;1.93;100.00;95925.25;5105631;28;19942;-71
2023/12/06 04:26:56;;;;;;;;;;;;;;;1.92;100.00;95924.47;5106724;28;19940;-71
2023/12/06 04:29:22;;;;;;;;;;;;;;;1.92;100.00;95924.47;5107301;28;19951;-71
2023/12/06 04:31:48;;;;;;;;;;;;;;;1.93;100.00;95928.66;5106642;28;19937;-71
2023/12/06 04:34:14;;;;;;;;;;;;;;;1.93;100.00;95933.00;5106270;28;20137;-71
2023/12/06 04:36:40;;;;;;;;;;;;;;;1.92;100.00;95928.84;5106623;28;19951;-71
2023/12/06 04:39:06;;;;;;;;;;;;;;;1.91;100.00;95930.63;5107214;28;20082;-71
2023/12/06 04:41:32;;;;;;;;;;;;;;;1.91;100.00;95934.97;5107058;28;19938;-72
2023/12/06 04:43:57;;;;;;;;;;;;;;;1.90;100.00;95934.16;5106369;28;19940;-72
2023/12/06 04:46:23;;;;;;;;;;;;;;;1.90;100.00;95943.72;5106361;28;20268;-72
2023/12/06 04:48:49;;;;;;;;;;;;;;;1.90;100.00;95935.97;5106987;28;19938;-72
2023/12/06 04:51:15;;;;;;;;;;;;;;;1.89;100.00;95937.75;5105990;28;19979;-72
2023/12/06 04:53:41;;;;;;;;;;;;;;;1.90;100.00;95941.94;5106660;28;20254;-72
2023/12/06 04:56:07;;;;;;;;;;;;;;;1.91;100.00;95945.31;5105073;28;19947;-76
2023/12/06 04:58:33;;;;;;;;;;;;;;;1.90;100.00;95939.34;5104625;28;19949;-71
2023/12/06 05:00:59;;;;;;;;;;;;;;;1.90;100.00;95938.53;5104993;28;19940;-71
2023/12/06 05:03:25;;;;;;;;;;;;;;;1.90;100.00;95941.94;5104871;28;19949;-71
2023/12/06 05:05:50;;;;;;;;;;;;;;;1.91;100.00;95945.31;5104952;28;19944;-71
2023/12/06 05:08:16;;;;;;;;;;;;;;;1.91;100.00;95947.91;5105389;28;19968;-71
2023/12/06 05:10:42;;;;;;;;;;;;;;;1.92;100.00;95952.09;5106325;28;19953;-71
2023/12/06 05:13:08;;;;;;;;;;;;;;;1.92;100.00;95949.53;5105370;28;19944;-75
2023/12/06 05:15:34;;;;;;;;;;;;;;;1.92;100.00;95952.91;5087677;28;19957;-72
2023/12/06 05:18:01;;;;;;;;;;;;;;;1.92;100.00;95950.31;5088500;28;19947;-72
2023/12/06 05:20:27;;;;;;;;;;;;;;;1.91;100.00;95948.72;5106102;28;19939;-73
2023/12/06 05:22:52;;;;;;;;;;;;;;;1.88;100.00;95951.63;5105541;28;19945;-72
2023/12/06 05:25:19;;;;;;;;;;;;;;;1.86;100.00;95947.63;5105504;28;20253;-72
2023/12/06 05:27:45;;;;;;;;;;;;;;;1.84;100.00;95950.38;5106065;28;19946;-72
2023/12/06 05:30:11;;;;;;;;;;;;;;;1.84;100.00;95945.22;5104465;28;19936;-73
2023/12/06 05:32:37;;;;;;;;;;;;;;;1.84;100.00;95950.38;5105496;28;19939;-74
2023/12/06 05:35:04;;;;;;;;;;;;;;;1.85;100.00;95948.59;5105612;28;19966;-71
2023/12/06 05:37:30;;;;;;;;;;;;;;;1.86;100.00;95950.22;5104256;28;19947;-72
2023/12/06 05:39:56;;;;;;;;;;;;;;;1.85;100.00;95949.41;5105916;28;20206;-71
2023/12/06 05:42:21;;;;;;;;;;;;;;;1.83;100.00;95947.00;5104714;28;19937;-71
2023/12/06 05:44:47;;;;;;;;;;;;;;;1.85;100.00;95956.34;5104700;28;20021;-71
2023/12/06 05:47:13;;;;;;;;;;;;;;;1.84;100.00;95955.56;5105162;28;19941;-71
2023/12/06 05:49:40;;;;;;;;;;;;;;;1.84;100.00;95958.13;5103810;28;19968;-71
2023/12/06 05:52:06;;;;;;;;;;;;;;;1.83;100.00;95956.53;5105364;28;19950;-73
2023/12/06 05:54:32;;;;;;;;;;;;;;;1.82;100.00;95963.47;5104932;28;19968;-72
2023/12/06 05:56:58;;;;;;;;;;;;;;;1.79;100.00;95963.84;5104900;28;19940;-71
2023/12/06 05:59:24;;;;;;;;;;;;;;;1.77;100.00;95965.78;5105760;28;19952;-72
2023/12/06 06:01:49;;;;;;;;;;;;;;;1.77;100.00;95963.22;5105440;28;20239;-72
2023/12/06 06:04:15;;;;;;;;;;;;;;;1.75;100.00;95972.91;5103737;28;19947;-72
2023/12/06 06:06:41;;;;;;;;;;;;;;;1.75;100.00;95969.53;5104516;28;19939;-71
2023/12/06 06:09:07;;;;;;;;;;;;;;;1.75;100.00;95974.72;5105570;28;19942;-71
2023/12/06 06:11:33;;;;;;;;;;;;;;;1.74;100.00;95973.09;5104477;28;19966;-71
2023/12/06 06:14:00;;;;;;;;;;;;;;;1.74;100.00;95973.91;5104643;28;19935;-72
2023/12/06 06:16:26;;;;;;;;;;;;;;;1.74;100.00;95970.50;5104738;28;19946;-72
2023/12/06 06:18:52;;;;;;;;;;;;;;;1.75;100.00;95974.72;5105161;28;19938;-73
2023/12/06 06:21:19;;;;;;;;;;;;;;;1.74;100.00;95971.31;5104547;28;19939;-73
2023/12/06 06:23:45;;;;;;;;;;;;;;;1.74;100.00;95981.66;5104896;28;19943;-72
2023/12/06 06:26:11;;;;;;;;;;;;;;;1.75;100.00;95978.09;5104984;28;19944;-76
2023/12/06 06:28:37;;;;;;;;;;;;;;;1.75;100.00;95982.47;5104455;28;19938;-74
2023/12/06 06:31:03;;;;;;;;;;;;;;;1.75;100.00;95983.25;5104466;28;19944;-74
2023/12/06 06:33:30;;;;;;;;;;;;;;;1.76;100.00;95984.06;5103204;28;19942;-75
2023/12/06 06:35:55;;;;;;;;;;;;;;;1.76;100.00;95996.97;5104343;28;20120;-74
2023/12/06 06:38:21;;;;;;;;;;;;;;;1.75;100.00;95996.19;5103758;28;19948;-76
2023/12/06 06:40:47;;;;;;;;;;;;;;;1.76;100.00;96002.16;5104089;28;19940;-75
2023/12/06 06:43:13;;;;;;;;;;;;;;;1.75;100.00;95997.97;5104711;28;19951;-78
2023/12/06 06:45:42;;;;;;;;;;;;;;;1.75;100.00;95995.38;5104269;28;19963;-72
2023/12/06 06:48:09;;;;;;;;;;;;;;;1.75;100.00;96000.56;5104240;28;19947;-70
2023/12/06 06:50:35;;;;;;;;;;;;;;;1.75;100.00;96010.91;5104257;28;19966;-71
2023/12/06 06:53:03;;;;;;;;;;;;;;;1.74;100.00;96004.09;5103460;28;20813;-71
2023/12/06 06:55:29;;;;;;;;;;;;;;;1.75;100.00;96019.44;5104517;28;19963;-71
2023/12/06 06:57:56;;;;;;;;;;;;;;;1.76;100.00;96020.25;5104078;28;20131;-71
2023/12/06 07:00:22;;;;;;;;;;;;;;;1.74;100.00;96017.84;5104165;28;20139;-71
2023/12/06 07:02:48;;;;;;;;;;;;;;;1.76;100.00;96020.25;5104024;28;19962;-71
2023/12/06 07:05:14;;;;;;;;;;;;;;;1.76;100.00;96023.63;5104750;28;20218;-75
2023/12/06 07:07:41;;;;;;;;;;;;;;;1.77;100.00;96027.84;5104154;28;19964;-72
2023/12/06 07:10:07;;;;;;;;;;;;;;;1.77;100.00;96017.50;5104912;28;19953;-72
2023/12/06 07:12:33;;;;;;;;;;;;;;;1.77;100.00;96021.88;5104343;28;20223;-72
2023/12/06 07:14:59;;;;;;;;;;;;;;;1.77;100.00;96025.25;5103933;28;19962;-71
2023/12/06 07:17:25;;;;;;;;;;;;;;;1.78;100.00;96028.63;5104867;28;20235;-72
2023/12/06 07:19:51;;;;;;;;;;;;;;;1.79;100.00;96032.84;5104005;28;19936;-71
2023/12/06 07:22:17;;;;;;;;;;;;;;;1.79;100.00;96041.41;5104039;28;20015;-74
2023/12/06 07:24:43;;;;;;;;;;;;;;;1.79;100.00;96040.59;5104731;28;19938;-71
2023/12/06 07:27:09;;;;;;;;;;;;;;;1.79;100.00;96043.97;5104741;28;19981;-71
2023/12/06 07:29:38;;;;;;;;;;;;;;;1.81;100.00;96052.38;5103886;28;19938;-71
2023/12/06 07:32:04;;;;;;;;;;;;;;;1.81;100.00;96054.16;5103978;28;19952;-71
2023/12/06 07:34:29;;;;;;;;;;;;;;;1.80;100.00;96055.13;5104066;28;20026;-72
2023/12/06 07:36:56;;;;;;;;;;;;;;;1.77;100.00;96053.69;5103913;28;19981;-72
2023/12/06 07:39:22;;;;;;;;;;;;;;;1.75;100.00;96058.22;5103844;28;19944;-72
2023/12/06 07:41:48;;;;;;;;;;;;;;;1.75;100.00;96058.22;5104293;28;20289;-73
2023/12/06 07:44:15;;;;;;;;;;;;;;;1.76;100.00;96059.81;5103938;28;19939;-72
2023/12/06 07:46:41;;;;;;;;;;;;;;;1.79;100.00;96067.25;5103267;28;20186;-71
2023/12/06 07:49:07;;;;;;;;;;;;;;;1.82;100.00;96066.88;5104378;28;19938;-72
2023/12/06 07:51:35;;;;;;;;;;;;;;;1.86;100.00;96069.94;5103739;28;19952;-71
2023/12/06 07:54:01;;;;;;;;;;;;;;;1.89;100.00;96076.53;5105411;28;20130;-71
2023/12/06 07:56:27;;;;;;;;;;;;;;;1.91;100.00;96082.34;5106615;28;19958;-71
2023/12/06 07:58:56;;;;;;;;;;;;;;;1.94;100.00;96079.44;5107938;28;19948;-73
2023/12/06 08:01:24;;;;;;;;;;;;;;;1.95;100.00;96081.84;5107338;28;19940;-72
2023/12/06 08:03:50;;;;;;;;;;;;;;;2.00;100.00;96087.31;5107278;28;19934;-72
2023/12/06 08:06:16;;;;;;;;;;;;;;;2.07;100.00;96094.38;5107262;28;19944;-72
2023/12/06 08:08:42;;;;;;;;;;;;;;;2.18;100.00;96094.78;5107138;28;19946;-72
2023/12/06 08:11:10;;;;;;;;;;;;;;;2.31;100.00;96101.94;5107607;28;19941;-72
2023/12/06 08:13:35;;;;;;;;;;;;;;;2.46;100.00;96111.50;5107086;28;19946;-72
2023/12/06 08:16:01;;;;;;;;;;;;;;;2.62;100.00;96101.03;5106918;28;19961;-73
2023/12/06 08:18:27;;;;;;;;;;;;;;;2.74;100.00;96106.59;5106690;28;19985;-71
2023/12/06 08:20:53;;;;;;;;;;;;;;;2.78;100.00;96113.03;5106629;28;19949;-71
2023/12/06 08:23:21;;;;;;;;;;;;;;;2.77;100.00;96119.16;5106544;28;19956;-71
2023/12/06 08:25:47;;;;;;;;;;;;;;;2.76;100.00;96120.94;5106868;28;19944;-71
2023/12/06 08:28:12;;;;;;;;;;;;;;;2.74;100.00;96127.28;5107426;28;19944;-71
2023/12/06 08:30:38;;;;;;;;;;;;;;;2.71;100.00;96120.69;5107343;28;19946;-71
2023/12/06 08:33:04;;;;;;;;;;;;;;;2.72;100.00;96129.25;5106785;28;19945;-71
2023/12/06 08:35:30;;;;;;;;;;;;;;;2.74;100.00;96127.28;5106788;28;19969;-71
2023/12/06 08:37:56;;;;;;;;;;;;;;;2.77;100.00;96127.75;5107277;28;19978;-72
2023/12/06 08:40:22;;;;;;;;;;;;;;;2.81;100.00;96131.59;5088632;28;19944;-72
2023/12/06 08:42:47;;;;;;;;;;;;;;;2.81;100.00;96131.59;5106553;28;19940;-72
2023/12/06 08:45:13;;;;;;;;;;;;;;;2.84;100.00;96138.22;5106845;28;19958;-73
2023/12/06 08:47:42;;;;;;;;;;;;;;;2.87;100.00;96144.81;5107208;28;19935;-72
2023/12/06 08:50:09;;;;;;;;;;;;;;;3.36;100.00;96139.09;5105397;28;19973;-71
2023/12/06 08:52:34;;;;;;;;;;;;;;;3.63;100.00;96150.59;5106316;28;19945;-72
2023/12/06 08:55:00;;;;;;;;;;;;;;;3.56;100.00;96134.97;5106189;28;20000;-70
2023/12/06 08:57:27;;;;;;;;;;;;;;;3.47;100.00;96145.66;5106329;28;19945;-71
2023/12/06 08:59:53;;;;;;;;;;;;;;;3.35;100.00;96146.06;5106223;28;19942;-70
2023/12/06 09:02:19;;;;;;;;;;;;;;;3.29;100.00;96146.00;5106683;28;19954;-70
2023/12/06 09:04:45;;;;;;;;;;;;;;;3.24;100.00;96154.31;5105885;28;20015;-70
2023/12/06 09:07:10;;;;;;;;;;;;;;;3.22;100.00;96164.06;5106036;28;20260;-70
2023/12/06 09:09:36;;;;;;;;;;;;;;;3.20;100.00;96164.22;5106054;28;19946;-70
2023/12/06 09:12:02;;;;;;;;;;;;;;;3.18;100.00;96171.38;5105937;28;19947;-73
2023/12/06 09:14:28;;;;;;;;;;;;;;;3.15;100.00;96174.34;5106122;28;19943;-70
2023/12/06 09:16:54;;;;;;;;;;;;;;;3.11;100.00;96173.06;5106959;28;19948;-75
2023/12/06 09:19:20;;;;;;;;;;;;;;;3.08;100.00;96177.78;5104659;28;19941;-71
2023/12/06 09:21:47;;;;;;;;;;;;;;;3.07;100.00;96178.75;5105850;28;19939;-74
2023/12/06 09:24:13;;;;;;;;;;;;;;;3.05;100.00;96176.38;5105770;28;20130;-74
2023/12/06 09:26:39;;;;;;;;;;;;;;;3.04;100.00;96193.72;5106111;28;19942;-74
2023/12/06 09:29:06;;;;;;;;;;;;;;;3.04;100.00;96187.69;5106451;28;19988;-74
2023/12/06 09:31:33;;;;;;;;;;;;;;;3.04;100.00;96195.47;5105574;28;20228;-70
2023/12/06 09:33:59;;;;;;;;;;;;;;;3.05;100.00;96195.31;5105567;28;19940;-71
2023/12/06 09:36:25;;;;;;;;;;;;;;;3.06;100.00;96183.16;5105468;28;19961;-71
2023/12/06 09:38:52;;;;;;;;;;;;;;;3.05;100.00;96194.50;5105438;28;19947;-71
2023/12/06 09:41:20;;;;;;;;;;;;;;;3.03;100.00;96201.66;5105872;28;19941;-71
2023/12/06 09:43:46;;;;;;;;;;;;;;;3.04;100.00;96198.06;5106152;28;19949;-71
2023/12/06 09:46:16;;;;;;;;;;;;;;;3.05;100.00;96202.28;5105304;28;19958;-71
2023/12/06 09:48:41;;;;;;;;;;;;;;;3.07;100.00;96207.25;5105566;28;19946;-74
2023/12/06 09:51:07;;;;;;;;;;;;;;;3.10;100.00;96206.91;5105130;28;20004;-74
2023/12/06 09:53:33;;;;;;;;;;;;;;;3.13;100.00;96201.38;5104713;28;19988;-72
2023/12/06 09:56:00;;;;;;;;;;;;;;;3.44;100.00;96199.47;5105064;28;19939;-70
2023/12/06 09:58:25;;;;;;;;;;;;;;;3.48;100.00;96199.88;5105920;28;19943;-70
2023/12/06 10:00:51;;;;;;;;;;;;;;;3.48;100.00;96214.63;5105507;28;20273;-70
2023/12/06 10:03:20;;;;;;;;;;;;;;;3.39;100.00;96206.16;5104581;28;19951;-70
2023/12/06 10:05:54;;;;;;;;;;;;;;;3.33;100.00;96217.22;5105468;28;19945;-70
2023/12/06 10:08:20;;;;;;;;;;;;;;;3.26;100.00;96227.50;5103771;28;19942;-71
2023/12/06 10:10:45;;;;;;;;;;;;;;;3.21;100.00;96225.44;5104814;28;19936;-74
2023/12/06 10:13:11;;;;;;;;;;;;;;;3.19;100.00;96226.59;5105573;28;19935;-74
2023/12/06 10:15:37;;;;;;;;;;;;;;;3.16;100.00;96222.56;5104346;28;19956;-74
2023/12/06 10:18:03;;;;;;;;;;;;;;;3.14;100.00;96234.88;5105278;28;19942;-74
2023/12/06 10:20:29;;;;;;;;;;;;;;;3.13;100.00;96229.88;5105523;28;20226;-72
2023/12/06 10:22:55;;;;;;;;;;;;;;;3.11;100.00;96237.03;5104670;28;19945;-73
2023/12/06 10:25:21;;;;;;;;;;;;;;;3.09;100.00;96228.63;5103521;28;19937;-68
2023/12/06 10:27:47;;;;;;;;;;;;;;;3.04;100.00;96232.56;5104619;28;19946;-69
2023/12/06 10:30:18;;;;;;;;;;;;;;;3.00;100.00;96240.84;5104789;28;19944;-73
2023/12/06 10:32:45;;;;;;;;;;;;;;;2.98;100.00;96237.63;5104556;28;19936;-72
2023/12/06 10:35:11;;;;;;;;;;;;;;;2.97;100.00;96239.41;5105210;28;20233;-72
2023/12/06 10:37:38;;;;;;;;;;;;;;;2.98;100.00;96241.03;5104448;28;19944;-73
2023/12/06 10:40:10;;;;;;;;;;;;;;;2.98;100.00;96235.03;5104449;28;20107;-73
2023/12/06 10:42:38;;;;;;;;;;;;;;;2.99;100.00;96239.25;5104926;28;19952;-73
2023/12/06 10:45:04;;;;;;;;;;;;;;;2.98;100.00;96241.03;5104320;28;19951;-73
2023/12/06 10:47:31;;;;;;;;;;;;;;;2.97;100.00;96243.78;5105098;28;19946;-71
2023/12/06 10:49:57;;;;;;;;;;;;;;;2.95;100.00;96237.97;5104082;28;19985;-70
2023/12/06 10:52:23;;;;;;;;;;;;;;;2.95;100.00;96236.19;5104477;28;19954;-70
2023/12/06 10:54:49;;;;;;;;;;;;;;;2.93;100.00;96245.91;5104260;28;19940;-69
2023/12/06 10:57:17;;;;;;;;;;;;;;;2.93;100.00;96240.75;5103743;28;19953;-70
2023/12/06 10:59:43;;;;;;;;;;;;;;;2.93;100.00;96243.31;5104421;28;20230;-70
2023/12/06 11:02:10;;;;;;;;;;;;;;;2.93;100.00;96247.72;5104152;28;19948;-69
2023/12/06 11:04:38;;;;;;;;;;;;;;;2.91;100.00;96247.88;5104086;28;19945;-68
2023/12/06 11:07:33;;;;;;;;;;;;;;;2.89;100.00;96242.06;5103653;28;19953;-70
2023/12/06 11:10:09;;;;;;;;;;;;;;;2.89;100.00;96242.06;5049738;28;19949;-69
2023/12/06 11:13:09;;;;;;;;;;;;;;;2.86;100.00;96245.03;5104885;28;19947;-69
2023/12/06 11:15:35;;;;;;;;;;;;;;;2.88;100.00;96244.81;5090759;28;20113;-70
2023/12/06 11:18:18;;;;;;;;;;;;;;;2.90;100.00;96237.69;5104006;28;19979;-69
2023/12/06 11:20:44;;;;;;;;;;;;;;;2.92;100.00;96239.16;5104154;28;19930;-72
2023/12/06 11:23:10;;;;;;;;;;;;;;;2.95;100.00;96240.56;5104722;28;19978;-69
2023/12/06 11:25:45;;;;;;;;;;;;;;;2.98;100.00;96248.81;5103918;28;19979;-69
2023/12/06 11:28:12;;;;;;;;;;;;;;;2.99;100.00;96253.00;5106309;28;20198;-68
2023/12/06 11:30:46;;;;;;;;;;;;;;;3.01;100.00;96250.25;5106805;28;19950;-69
2023/12/06 11:33:12;;;;;;;;;;;;;;;3.02;100.00;96254.41;5108476;28;19943;-68
2023/12/06 11:35:41;;;;;;;;;;;;;;;3.02;100.00;96263.03;5107988;28;19964;-69
2023/12/06 11:38:07;;;;;;;;;;;;;;;2.99;100.00;96250.41;5107814;28;19946;-68
2023/12/06 11:40:33;;;;;;;;;;;;;;;3.00;100.00;96258.97;5108554;28;19938;-72
2023/12/06 11:43:00;;;;;;;;;;;;;;;2.97;100.00;96270.50;5108233;28;19945;-70
2023/12/06 11:45:30;;;;;;;;;;;;;;;2.96;100.00;96271.50;5107601;28;20231;-71
2023/12/06 11:48:00;;;;;;;;;;;;;;;2.95;100.00;96264.69;5108423;28;19951;-70
2023/12/06 11:50:26;;;;;;;;;;;;;;;2.94;100.00;96259.66;5106742;28;19974;-70
2023/12/06 11:52:52;;;;;;;;;;;;;;;2.92;100.00;96269.41;5108036;28;19945;-71
2023/12/06 11:55:19;;;;;;;;;;;;;;;2.91;100.00;96260.81;5106321;28;20255;-71
2023/12/06 11:57:58;;;;;;;;;;;;;;;2.90;100.00;96274.78;5107385;28;20223;-69
2023/12/06 12:00:24;;;;;;;;;;;;;;;2.91;100.00;96272.97;5107421;28;19941;-72
2023/12/06 12:02:51;;;;;;;;;;;;;;;2.93;100.00;96283.97;5107256;28;19972;-71
2023/12/06 12:05:35;;;;;;;;;;;;;;;2.95;100.00;96274.25;5107545;28;19944;-72
2023/12/06 12:08:02;;;;;;;;;;;;;;;2.95;100.00;96276.84;5107228;28;20130;-72
2023/12/06 12:10:28;;;;;;;;;;;;;;;2.94;100.00;96272.63;5106329;28;20227;-71
2023/12/06 12:12:54;;;;;;;;;;;;;;;2.92;100.00;96271.97;5107125;28;19945;-72
2023/12/06 12:15:20;;;;;;;;;;;;;;;2.94;100.00;96275.22;5107085;28;19954;-70
2023/12/06 12:17:46;;;;;;;;;;;;;;;2.93;100.00;96277.00;5107119;28;20110;-71
2023/12/06 12:20:12;;;;;;;;;;;;;;;2.92;100.00;96275.41;5107532;28;19945;-69
2023/12/06 12:22:44;;;;;;;;;;;;;;;2.92;100.00;96284.94;5107541;28;19942;-69
2023/12/06 12:25:10;;;;;;;;;;;;;;;2.90;100.00;96276.53;5107676;28;19943;-68
2023/12/06 12:27:36;;;;;;;;;;;;;;;3.03;100.00;96281.97;5106922;28;19943;-70
2023/12/06 12:30:04;;;;;;;;;;;;;;;3.37;100.00;96289.25;5106834;28;19940;-68
2023/12/06 12:32:39;;;;;;;;;;;;;;;3.39;100.00;96279.53;5106049;28;19945;-69
2023/12/06 12:35:06;;;;;;;;;;;;;;;3.35;100.00;96274.88;5106903;28;19934;-68
2023/12/06 12:37:32;;;;;;;;;;;;;;;3.28;100.00;96273.97;5107215;28;19940;-70
2023/12/06 12:40:01;;;;;;;;;;;;;;;3.15;100.00;96270.19;5106009;28;19969;-70
2023/12/06 12:42:27;;;;;;;;;;;;;;;3.08;100.00;96286.59;5107144;28;20095;-70
2023/12/06 12:44:53;;;;;;;;;;;;;;;3.01;100.00;96273.56;5106432;28;19971;-70